createdAt,value
2017-06-28T00:01:31.303Z,51.70
2017-06-28T00:03:58.795Z,51.70
2017-06-28T00:06:26.289Z,51.50
2017-06-28T00:08:53.897Z,51.30
2017-06-28T00:11:21.498Z,51.10
2017-06-28T00:13:49.030Z,51.20
2017-06-28T00:16:18.196Z,51.40
2017-06-28T00:18:45.701Z,51.10
2017-06-28T00:21:13.217Z,51.30
2017-06-28T00:23:40.757Z,51.60
2017-06-28T00:26:08.247Z,51.70
2017-06-28T00:28:35.798Z,51.60
2017-06-28T00:31:03.286Z,51.50
2017-06-28T00:33:30.795Z,51.40
2017-06-28T00:35:59.062Z,52.20
2017-06-28T00:38:26.558Z,51.60
2017-06-28T00:40:54.057Z,51.70
2017-06-28T00:43:21.561Z,51.90
2017-06-28T00:45:49.128Z,51.50
2017-06-28T00:48:16.626Z,51.50
2017-06-28T00:50:44.126Z,51.50
2017-06-28T00:53:11.614Z,51.10
2017-06-28T00:55:39.107Z,51.30
2017-06-28T00:58:09.145Z,51.20
2017-06-28T01:00:36.666Z,51.30
2017-06-28T01:03:04.163Z,51.30
2017-06-28T01:05:31.669Z,51.30
2017-06-28T01:07:59.170Z,51.30
2017-06-28T01:10:26.651Z,51.30
2017-06-28T01:12:54.150Z,51.10
2017-06-28T01:15:21.653Z,51.20
2017-06-28T01:17:49.168Z,51.40
2017-06-28T01:20:16.650Z,51.70
2017-06-28T01:22:44.157Z,51.90
2017-06-28T01:25:11.652Z,52.10
2017-06-28T01:27:39.255Z,52.20
2017-06-28T01:30:06.793Z,52.00
2017-06-28T01:32:34.436Z,51.90
2017-06-28T01:35:01.936Z,51.90
2017-06-28T01:37:29.479Z,52.00
2017-06-28T01:39:56.984Z,51.80
2017-06-28T01:42:24.471Z,51.80
2017-06-28T01:44:51.947Z,51.90
2017-06-28T01:47:19.442Z,52.20
2017-06-28T01:49:46.926Z,52.20
2017-06-28T01:52:14.439Z,52.10
2017-06-28T01:54:41.940Z,52.00
2017-06-28T01:57:09.435Z,51.70
2017-06-28T01:59:36.944Z,51.90
2017-06-28T02:02:05.213Z,51.60
2017-06-28T02:04:32.694Z,52.00
2017-06-28T02:07:00.256Z,52.00
2017-06-28T02:09:27.766Z,52.00
2017-06-28T02:11:55.265Z,52.20
2017-06-28T02:14:23.537Z,52.90
2017-06-28T02:16:51.811Z,52.60
2017-06-28T02:19:20.152Z,52.40
2017-06-28T02:21:47.733Z,52.40
2017-06-28T02:24:15.217Z,52.30
2017-06-28T02:26:43.462Z,52.50
2017-06-28T02:29:11.009Z,52.40
2017-06-28T02:31:38.513Z,52.30
2017-06-28T02:34:05.993Z,52.30
2017-06-28T02:36:33.528Z,52.20
2017-06-28T02:39:01.786Z,52.40
2017-06-28T02:41:29.257Z,52.40
2017-06-28T02:43:57.532Z,52.40
2017-06-28T02:46:25.060Z,52.40
2017-06-28T02:48:52.563Z,52.70
2017-06-28T02:51:20.022Z,52.70
2017-06-28T02:53:47.529Z,52.20
2017-06-28T02:56:15.051Z,52.40
2017-06-28T02:58:42.628Z,52.70
2017-06-28T03:01:10.118Z,52.80
2017-06-28T03:03:37.629Z,52.70
2017-06-28T03:06:05.126Z,53.60
2017-06-28T03:08:32.610Z,53.00
2017-06-28T03:11:00.211Z,53.00
2017-06-28T03:13:27.694Z,53.40
2017-06-28T03:15:55.201Z,53.30
2017-06-28T03:18:22.728Z,53.70
2017-06-28T03:20:50.221Z,53.80
2017-06-28T03:23:18.498Z,53.70
2017-06-28T03:25:46.761Z,53.60
2017-06-28T03:28:14.283Z,53.60
2017-06-28T03:30:41.808Z,53.30
2017-06-28T03:33:09.319Z,53.50
2017-06-28T03:35:36.832Z,53.50
2017-06-28T03:38:04.324Z,53.40
2017-06-28T03:40:31.819Z,53.50
2017-06-28T03:42:59.312Z,53.50
2017-06-28T03:45:26.811Z,53.60
2017-06-28T03:47:54.289Z,53.40
2017-06-28T03:50:21.811Z,53.60
2017-06-28T03:52:49.326Z,53.60
2017-06-28T03:55:16.851Z,54.20
2017-06-28T03:57:44.358Z,53.80
2017-06-28T04:00:11.866Z,53.90
2017-06-28T04:02:39.347Z,54.00
2017-06-28T04:05:06.839Z,54.00
2017-06-28T04:07:34.322Z,54.00
2017-06-28T04:10:01.833Z,54.30
2017-06-28T04:12:30.080Z,55.20
2017-06-28T04:14:57.581Z,54.40
2017-06-28T04:17:25.841Z,55.00
2017-06-28T04:19:54.729Z,55.40
2017-06-28T04:22:22.212Z,55.20
2017-06-28T04:24:49.758Z,55.40
2017-06-28T04:27:17.254Z,55.70
2017-06-28T04:29:44.767Z,55.80
2017-06-28T04:32:12.330Z,55.80
2017-06-28T04:34:39.830Z,55.90
2017-06-28T04:37:07.350Z,56.10
2017-06-28T04:39:35.632Z,56.40
2017-06-28T04:42:03.904Z,56.00
2017-06-28T04:44:32.171Z,56.10
2017-06-28T04:46:59.680Z,56.10
2017-06-28T04:49:27.220Z,56.10
2017-06-28T04:51:54.684Z,56.20
2017-06-28T04:54:22.212Z,56.40
2017-06-28T04:56:49.737Z,56.50
2017-06-28T04:59:17.234Z,56.60
2017-06-28T05:01:44.803Z,56.70
2017-06-28T05:04:13.069Z,56.80
2017-06-28T05:06:40.568Z,56.70
2017-06-28T05:09:08.116Z,56.90
2017-06-28T05:11:35.610Z,56.60
2017-06-28T05:14:03.117Z,56.10
2017-06-28T05:16:31.405Z,55.60
2017-06-28T05:18:58.916Z,55.60
2017-06-28T05:21:26.473Z,55.60
2017-06-28T05:23:54.042Z,55.70
2017-06-28T05:26:21.532Z,55.70
2017-06-28T05:28:49.145Z,55.90
2017-06-28T05:31:16.661Z,56.10
2017-06-28T05:33:44.153Z,56.20
2017-06-28T05:36:11.718Z,56.20
2017-06-28T05:38:39.287Z,56.30
2017-06-28T05:41:06.792Z,56.40
2017-06-28T05:43:35.062Z,56.30
2017-06-28T05:46:03.326Z,56.00
2017-06-28T05:48:30.873Z,56.30
2017-06-28T05:50:58.349Z,57.10
2017-06-28T05:53:25.864Z,56.40
2017-06-28T05:55:53.379Z,56.50
2017-06-28T05:58:21.652Z,56.30
2017-06-28T06:00:49.923Z,56.40
2017-06-28T06:03:17.441Z,56.30
2017-06-28T06:05:44.947Z,56.40
2017-06-28T06:08:12.422Z,56.50
2017-06-28T06:10:39.922Z,56.50
2017-06-28T06:13:07.462Z,56.40
2017-06-28T06:15:34.965Z,56.30
2017-06-28T06:18:02.461Z,56.30
2017-06-28T06:20:29.969Z,56.10
2017-06-28T06:22:57.438Z,56.10
2017-06-28T06:25:24.932Z,56.10
2017-06-28T06:27:52.636Z,56.00
2017-06-28T06:30:20.207Z,56.10
2017-06-28T06:32:47.706Z,56.30
2017-06-28T06:35:15.271Z,56.60
2017-06-28T06:37:42.755Z,56.50
2017-06-28T06:40:10.337Z,56.60
2017-06-28T06:42:37.841Z,56.60
2017-06-28T06:45:05.390Z,56.60
2017-06-28T06:47:33.695Z,56.20
2017-06-28T06:50:02.353Z,56.40
2017-06-28T06:52:30.009Z,56.40
2017-06-28T06:54:57.554Z,56.60
2017-06-28T06:57:25.053Z,56.70
2017-06-28T06:59:52.544Z,56.80
2017-06-28T07:02:20.118Z,57.00
2017-06-28T07:04:47.659Z,57.10
2017-06-28T07:07:15.194Z,57.10
2017-06-28T07:09:42.687Z,57.00
2017-06-28T07:12:10.175Z,57.20
2017-06-28T07:14:37.676Z,57.50
2017-06-28T07:17:05.208Z,58.20
2017-06-28T07:19:32.733Z,57.60
2017-06-28T07:22:00.253Z,57.50
2017-06-28T07:24:27.738Z,57.50
2017-06-28T07:26:55.244Z,57.40
2017-06-28T07:29:22.719Z,57.30
2017-06-28T07:31:50.976Z,57.30
2017-06-28T07:34:18.519Z,57.30
2017-06-28T07:36:46.000Z,57.50
2017-06-28T07:39:13.507Z,57.40
2017-06-28T07:41:41.016Z,57.30
2017-06-28T07:44:09.326Z,57.70
2017-06-28T07:46:36.876Z,57.90
2017-06-28T07:49:04.425Z,57.70
2017-06-28T07:51:32.682Z,57.30
2017-06-28T07:54:00.180Z,57.30
2017-06-28T07:56:27.712Z,57.00
2017-06-28T07:58:55.243Z,57.40
2017-06-28T08:01:22.748Z,57.40
2017-06-28T08:03:50.297Z,57.10
2017-06-28T08:06:17.827Z,57.20
2017-06-28T08:08:45.345Z,57.60
2017-06-28T08:11:12.884Z,57.20
2017-06-28T08:13:40.385Z,57.20
2017-06-28T08:16:07.961Z,57.80
2017-06-28T08:18:35.457Z,57.20
2017-06-28T08:21:02.963Z,57.40
2017-06-28T08:23:30.500Z,57.00
2017-06-28T08:25:58.022Z,57.00
2017-06-28T08:28:25.547Z,57.00
2017-06-28T08:30:53.064Z,56.90
2017-06-28T08:33:20.565Z,56.90
2017-06-28T08:35:48.078Z,56.80
2017-06-28T08:38:15.579Z,56.90
2017-06-28T08:40:43.089Z,56.70
2017-06-28T08:43:11.350Z,56.50
2017-06-28T08:45:38.819Z,56.50
2017-06-28T08:48:07.095Z,56.00
2017-06-28T08:50:35.405Z,55.60
2017-06-28T08:53:03.005Z,55.50
2017-06-28T08:55:30.495Z,55.70
2017-06-28T08:57:58.006Z,55.40
2017-06-28T09:00:25.492Z,55.10
2017-06-28T09:02:52.991Z,55.00
2017-06-28T09:05:20.571Z,54.70
2017-06-28T09:07:48.087Z,54.70
2017-06-28T09:10:15.624Z,54.50
2017-06-28T09:12:43.112Z,54.50
2017-06-28T09:15:11.384Z,54.30
2017-06-28T09:17:38.899Z,54.30
2017-06-28T09:20:06.423Z,54.00
2017-06-28T09:22:34.059Z,54.20
2017-06-28T09:25:01.589Z,53.90
2017-06-28T09:27:29.130Z,54.20
2017-06-28T09:29:56.623Z,54.20
2017-06-28T09:32:24.132Z,54.10
2017-06-28T09:34:52.351Z,54.10
2017-06-28T09:37:19.867Z,53.60
2017-06-28T09:39:47.361Z,53.70
2017-06-28T09:42:14.997Z,53.10
2017-06-28T09:44:42.500Z,52.80
2017-06-28T09:47:09.994Z,52.30
2017-06-28T09:49:37.493Z,52.40
2017-06-28T09:52:05.004Z,52.20
2017-06-28T09:54:32.495Z,52.00
2017-06-28T09:56:59.998Z,51.50
2017-06-28T09:59:27.522Z,51.50
2017-06-28T10:01:55.009Z,51.30
2017-06-28T10:04:22.511Z,51.00
2017-06-28T10:06:50.030Z,50.70
2017-06-28T10:09:17.531Z,50.40
2017-06-28T10:11:45.038Z,49.40
2017-06-28T10:14:12.574Z,48.70
2017-06-28T10:16:40.070Z,48.90
2017-06-28T10:19:07.573Z,48.10
2017-06-28T10:21:35.076Z,47.90
2017-06-28T10:24:02.592Z,47.70
2017-06-28T10:26:30.082Z,47.00
2017-06-28T10:28:57.696Z,46.40
2017-06-28T10:31:25.226Z,46.30
2017-06-28T10:33:52.731Z,46.00
2017-06-28T10:36:20.289Z,46.10
2017-06-28T10:38:47.808Z,45.40
2017-06-28T10:41:16.083Z,44.60
2017-06-28T10:43:43.590Z,45.10
2017-06-28T10:46:11.154Z,43.70
2017-06-28T10:48:38.691Z,40.00
2017-06-28T10:51:06.252Z,38.10
2017-06-28T10:53:33.829Z,35.00
2017-06-28T10:56:01.333Z,32.80
2017-06-28T10:58:28.842Z,31.60
2017-06-28T11:00:56.362Z,30.50
2017-06-28T11:03:24.657Z,29.30
2017-06-28T11:05:52.913Z,26.90
2017-06-28T11:08:20.462Z,26.90
2017-06-28T11:10:47.977Z,25.60
2017-06-28T11:13:15.471Z,24.90
2017-06-28T11:15:43.828Z,24.70
2017-06-28T11:18:11.324Z,24.80
2017-06-28T11:20:38.813Z,24.80
2017-06-28T11:23:06.319Z,25.00
2017-06-28T11:25:34.745Z,25.40
2017-06-28T11:28:02.241Z,25.60
2017-06-28T11:30:29.710Z,26.30
2017-06-28T11:32:57.251Z,26.40
2017-06-28T11:35:24.758Z,27.40
2017-06-28T11:37:52.342Z,27.10
2017-06-28T11:40:20.581Z,26.00
2017-06-28T11:42:48.083Z,26.00
2017-06-28T11:45:16.359Z,24.80
2017-06-28T11:47:44.722Z,23.00
2017-06-28T11:50:12.235Z,23.00
2017-06-28T11:52:39.726Z,22.20
2017-06-28T11:55:07.236Z,21.90
2017-06-28T11:57:34.801Z,22.00
2017-06-28T12:00:02.286Z,22.10
2017-06-28T12:02:29.815Z,22.50
2017-06-28T12:04:57.370Z,24.10
2017-06-28T12:07:24.873Z,24.20
2017-06-28T12:09:52.366Z,23.50
2017-06-28T12:12:20.635Z,23.20
2017-06-28T12:14:48.887Z,22.80
2017-06-28T12:17:16.388Z,22.80
2017-06-28T12:19:43.911Z,22.90
2017-06-28T12:22:11.510Z,23.10
2017-06-28T12:24:39.036Z,21.60
2017-06-28T12:27:06.526Z,21.60
2017-06-28T12:29:34.209Z,21.90
2017-06-28T12:32:01.694Z,21.30
2017-06-28T12:34:29.180Z,21.70
2017-06-28T12:36:56.766Z,22.30
2017-06-28T12:39:24.272Z,23.30
2017-06-28T12:41:51.781Z,24.70
2017-06-28T12:44:19.293Z,25.30
2017-06-28T12:46:46.801Z,25.80
2017-06-28T12:49:14.338Z,26.40
2017-06-28T12:51:41.870Z,26.90
2017-06-28T12:54:09.402Z,27.20
2017-06-28T12:56:36.962Z,27.70
2017-06-28T12:59:04.507Z,28.50
2017-06-28T13:01:32.153Z,29.50
2017-06-28T13:04:01.539Z,29.80
2017-06-28T13:06:29.536Z,30.00
2017-06-28T13:08:57.026Z,31.20
2017-06-28T13:11:24.537Z,32.70
2017-06-28T13:13:52.037Z,32.70
2017-06-28T13:16:19.538Z,32.30
2017-06-28T13:18:47.088Z,33.30
2017-06-28T13:21:14.575Z,34.10
2017-06-28T13:23:42.844Z,36.30
2017-06-28T13:26:11.146Z,36.90
2017-06-28T13:28:38.686Z,36.80
2017-06-28T13:31:06.330Z,36.00
2017-06-28T13:33:33.861Z,36.20
2017-06-28T13:36:01.341Z,36.70
2017-06-28T13:38:28.822Z,36.90
2017-06-28T13:40:56.337Z,37.50
2017-06-28T13:43:23.872Z,38.20
2017-06-28T13:45:51.369Z,38.80
2017-06-28T13:48:18.913Z,39.40
2017-06-28T13:50:46.417Z,40.10
2017-06-28T13:53:13.958Z,41.00
2017-06-28T13:55:41.480Z,41.80
2017-06-28T13:58:08.965Z,41.90
2017-06-28T14:00:36.520Z,42.60
2017-06-28T14:03:04.033Z,42.60
2017-06-28T14:05:31.556Z,42.90
2017-06-28T14:07:59.086Z,43.20
2017-06-28T14:10:26.602Z,43.70
2017-06-28T14:12:54.855Z,44.60
2017-06-28T14:15:22.355Z,44.60
2017-06-28T14:17:49.899Z,44.80
2017-06-28T14:20:17.395Z,45.20
2017-06-28T14:22:44.887Z,45.30
2017-06-28T14:25:12.384Z,45.50
2017-06-28T14:27:39.926Z,48.40
2017-06-28T14:30:07.438Z,51.70
2017-06-28T14:32:34.961Z,53.90
2017-06-28T14:35:02.473Z,57.20
2017-06-28T14:37:30.051Z,58.90
2017-06-28T14:39:57.586Z,58.90
2017-06-28T14:42:25.138Z,60.80
2017-06-28T14:44:52.651Z,62.50
2017-06-28T14:47:20.935Z,63.30
2017-06-28T14:49:49.224Z,64.30
2017-06-28T14:52:16.750Z,64.30
2017-06-28T14:54:44.240Z,64.30
2017-06-28T14:57:11.759Z,65.20
2017-06-28T14:59:39.387Z,66.40
2017-06-28T15:02:06.997Z,67.20
2017-06-28T15:04:34.520Z,68.10
2017-06-28T15:07:02.054Z,69.30
2017-06-28T15:09:29.549Z,69.70
2017-06-28T15:11:57.032Z,69.30
2017-06-28T15:14:24.545Z,70.20
2017-06-28T15:16:52.041Z,71.00
2017-06-28T15:19:19.607Z,70.50
2017-06-28T15:21:47.113Z,70.30
2017-06-28T15:24:14.655Z,70.00
2017-06-28T15:26:42.144Z,69.40
2017-06-28T15:29:09.999Z,69.00
2017-06-28T15:31:37.556Z,68.70
2017-06-28T15:34:05.084Z,68.70
2017-06-28T15:36:33.364Z,69.00
2017-06-28T15:39:01.622Z,68.00
2017-06-28T15:41:30.129Z,67.60
2017-06-28T15:43:57.635Z,67.60
2017-06-28T15:46:25.141Z,66.40
2017-06-28T15:48:52.657Z,68.10
2017-06-28T15:51:20.186Z,68.70
2017-06-28T15:53:59.498Z,68.40
2017-06-28T15:56:30.696Z,68.90
2017-06-28T15:58:58.223Z,68.90
2017-06-28T16:01:25.814Z,69.80
2017-06-28T16:03:53.306Z,71.00
2017-06-28T16:06:20.820Z,70.50
2017-06-28T16:08:48.327Z,71.00
2017-06-28T16:11:16.615Z,69.00
2017-06-28T16:13:44.897Z,69.90
2017-06-28T16:16:12.409Z,69.90
2017-06-28T16:18:39.939Z,69.00
2017-06-28T16:21:07.551Z,68.20
2017-06-28T16:23:35.081Z,66.90
2017-06-28T16:26:02.589Z,67.10
2017-06-28T16:28:30.164Z,65.30
2017-06-28T16:30:58.848Z,61.60
2017-06-28T16:33:26.389Z,61.10
2017-06-28T16:35:54.661Z,61.60
2017-06-28T16:38:22.221Z,61.40
2017-06-28T16:40:49.811Z,62.30
2017-06-28T16:43:17.386Z,60.50
2017-06-28T16:45:44.976Z,60.80
2017-06-28T16:48:12.596Z,60.10
2017-06-28T16:50:40.179Z,61.60
2017-06-28T16:53:07.699Z,60.60
2017-06-28T16:55:35.249Z,60.20
2017-06-28T16:58:02.883Z,61.50
2017-06-28T17:00:30.436Z,59.40
2017-06-28T17:02:57.998Z,59.90
2017-06-28T17:05:25.494Z,59.70
2017-06-28T17:07:53.005Z,59.30
2017-06-28T17:10:21.286Z,60.20
2017-06-28T17:12:48.887Z,61.20
2017-06-28T17:15:16.405Z,62.10
2017-06-28T17:17:43.945Z,62.30
2017-06-28T17:20:11.469Z,62.70
2017-06-28T17:22:39.028Z,64.50
2017-06-28T17:25:06.613Z,65.40
2017-06-28T17:27:34.448Z,65.60
2017-06-28T17:30:02.089Z,65.70
2017-06-28T17:32:29.632Z,65.70
2017-06-28T17:34:57.210Z,65.40
2017-06-28T17:37:24.816Z,65.70
2017-06-28T17:39:52.321Z,66.00
2017-06-28T17:42:19.913Z,64.80
2017-06-28T17:44:47.523Z,65.60
2017-06-28T17:47:15.096Z,65.30
2017-06-28T17:49:42.592Z,66.40
2017-06-28T17:52:10.272Z,65.60
2017-06-28T17:54:37.862Z,66.40
2017-06-28T17:57:07.195Z,67.20
2017-06-28T17:59:34.770Z,67.30
2017-06-28T18:02:02.298Z,67.30
2017-06-28T18:04:29.855Z,67.70
2017-06-28T18:06:57.491Z,67.50
2017-06-28T18:09:25.096Z,68.00
2017-06-28T18:11:52.648Z,68.50
2017-06-28T18:14:20.202Z,68.60
2017-06-28T18:16:47.804Z,69.10
2017-06-28T18:19:16.086Z,68.00
2017-06-28T18:21:44.385Z,68.10
2017-06-28T18:24:11.923Z,67.50
2017-06-28T18:26:39.449Z,67.20
2017-06-28T18:29:07.058Z,67.60
2017-06-28T18:31:34.560Z,67.50
2017-06-28T18:34:02.089Z,68.10
2017-06-28T18:36:29.652Z,67.30
2017-06-28T18:38:57.176Z,66.90
2017-06-28T18:41:24.763Z,67.40
2017-06-28T18:43:52.345Z,67.90
2017-06-28T18:46:19.865Z,68.60
2017-06-28T18:48:47.497Z,68.40
2017-06-28T18:51:15.012Z,68.70
2017-06-28T18:53:42.547Z,69.30
2017-06-28T18:56:10.842Z,70.70
2017-06-28T18:58:38.391Z,70.60
2017-06-28T19:01:06.105Z,70.80
2017-06-28T19:03:33.634Z,71.00
2017-06-28T19:06:02.120Z,71.20
2017-06-28T19:08:29.916Z,71.20
2017-06-28T19:10:57.448Z,71.30
2017-06-28T19:13:24.985Z,71.50
2017-06-28T19:15:52.550Z,72.00
2017-06-28T19:18:20.067Z,71.30
2017-06-28T19:20:47.612Z,72.00
2017-06-28T19:23:15.214Z,71.80
2017-06-28T19:25:42.828Z,72.30
2017-06-28T19:28:10.448Z,72.20
2017-06-28T19:30:38.849Z,72.60
2017-06-28T19:33:06.423Z,72.60
2017-06-28T19:35:34.002Z,72.90
2017-06-28T19:38:01.546Z,72.30
2017-06-28T19:40:30.116Z,72.40
2017-06-28T19:42:57.653Z,72.90
2017-06-28T20:09:51.554Z,73.10
2017-06-28T20:12:19.180Z,76.40
2017-06-28T20:14:46.687Z,76.80
2017-06-28T20:17:14.203Z,76.90
2017-06-28T20:19:41.798Z,76.80
2017-06-28T20:22:09.299Z,77.10
2017-06-28T20:24:36.792Z,77.00
2017-06-28T20:27:04.310Z,77.10
2017-06-28T20:29:32.573Z,77.20
2017-06-28T20:32:00.085Z,77.10
2017-06-28T20:34:27.624Z,77.50
2017-06-28T20:36:55.171Z,77.20
2017-06-28T20:39:22.724Z,77.60
2017-06-28T20:41:50.269Z,77.70
2017-06-28T20:44:17.892Z,77.90
2017-06-28T20:46:45.416Z,78.20
2017-06-28T20:49:12.951Z,78.20
2017-06-28T20:51:40.470Z,78.10
2017-06-28T20:54:08.079Z,78.30
2017-06-28T20:56:35.590Z,77.60
2017-06-28T20:59:03.133Z,77.70
2017-06-28T21:01:30.826Z,77.80
2017-06-28T21:03:58.369Z,77.80
2017-06-28T21:06:25.885Z,77.80
2017-06-28T21:08:53.417Z,77.80
2017-06-28T21:11:21.028Z,78.30
2017-06-28T21:13:48.576Z,78.50
2017-06-28T21:16:16.127Z,78.60
2017-06-28T21:18:43.679Z,79.00
2017-06-28T21:21:11.208Z,79.10
2017-06-28T21:23:38.735Z,79.00
2017-06-28T21:26:06.251Z,78.90
2017-06-28T21:28:33.776Z,78.70
2017-06-28T21:31:01.326Z,78.90
2017-06-28T21:33:28.967Z,78.70
2017-06-28T21:35:56.595Z,78.70
2017-06-28T21:38:24.127Z,79.40
2017-06-28T21:40:51.710Z,79.70
2017-06-28T21:43:19.234Z,79.90
2017-06-28T21:45:46.761Z,80.00
2017-06-28T21:48:14.276Z,80.00
2017-06-28T21:50:41.795Z,80.10
2017-06-28T21:53:09.396Z,80.30
2017-06-28T21:55:36.920Z,80.20
2017-06-28T21:58:04.456Z,80.50
2017-06-28T22:00:31.964Z,80.30
2017-06-28T22:02:59.465Z,79.70
2017-06-28T22:05:26.986Z,80.10
2017-06-28T22:07:54.517Z,80.30
2017-06-28T22:10:22.173Z,80.50
2017-06-28T22:12:49.722Z,80.70
2017-06-28T22:15:17.237Z,81.00
2017-06-28T22:17:44.751Z,80.90
2017-06-28T22:20:18.162Z,80.40
2017-06-28T22:22:45.820Z,80.60
2017-06-28T22:25:13.318Z,80.80
2017-06-28T22:27:40.833Z,81.00
2017-06-28T22:30:08.381Z,81.50
2017-06-28T22:32:35.922Z,81.20
2017-06-28T22:35:04.198Z,81.70
2017-06-28T22:37:32.541Z,82.00
2017-06-28T22:40:00.063Z,82.00
2017-06-28T22:42:27.623Z,81.80
2017-06-28T22:44:55.247Z,82.20
2017-06-28T22:47:23.525Z,82.50
2017-06-28T22:49:51.860Z,82.30
2017-06-28T22:52:19.518Z,82.30
2017-06-28T22:54:47.079Z,82.90
2017-06-28T22:57:14.698Z,82.80
2017-06-28T22:59:42.326Z,82.90
2017-06-28T23:02:09.854Z,83.10
2017-06-28T23:04:37.368Z,83.00
2017-06-28T23:07:05.682Z,83.90
2017-06-28T23:09:33.172Z,82.90
2017-06-28T23:12:00.715Z,83.10
2017-06-28T23:14:28.263Z,83.00
2017-06-28T23:16:55.823Z,83.10
2017-06-28T23:19:23.493Z,83.00
2017-06-28T23:21:51.327Z,83.50
2017-06-28T23:24:18.862Z,83.70
2017-06-28T23:26:46.373Z,83.90
2017-06-28T23:29:13.878Z,83.90
2017-06-28T23:31:41.397Z,83.80
2017-06-28T23:34:08.918Z,83.70
2017-06-28T23:36:37.187Z,84.00
2017-06-28T23:39:04.697Z,84.00
2017-06-28T23:41:32.249Z,84.20
2017-06-28T23:43:59.725Z,84.60
2017-06-28T23:46:27.249Z,84.90
2017-06-28T23:48:54.753Z,84.70
2017-06-28T23:51:22.292Z,84.70
2017-06-28T23:53:49.988Z,84.60
2017-06-28T23:56:17.503Z,84.50
2017-06-28T23:58:45.046Z,84.50
